Time;durP1;ratioP1;P1;durP2;ratioP2;P2;SDS_P1;SDS_P2;PMS_P1;PMS_P2;Temp;Humidity;BMP_temperature;BMP_pressure;BME280_temperature;BME280_humidity;BME280_pressure;Samples;Min_cycle;Max_cycle;Signal;HPM_P1;HPM_P2
2023/09/12 00:00:57;;;;;;;13.53;7.70;;;;;;;;;;5072114;28;20208;-81
2023/09/12 00:03:26;;;;;;;21.87;12.20;;;;;;;;;;5072056;28;20202;-81
2023/09/12 00:05:54;;;;;;;9.67;7.27;;;;;;;;;;5072386;28;20207;-82
2023/09/12 00:08:23;;;;;;;0.20;0.20;;;;;;;;;;5072162;28;20223;-81
2023/09/12 00:11:01;;;;;;;8.07;7.23;;;;;;;;;;5072435;28;20212;-82
2023/09/12 00:13:30;;;;;;;0.57;0.57;;;;;;;;;;5071813;28;20205;-81
2023/09/12 00:15:58;;;;;;;0.20;0.20;;;;;;;;;;5072521;28;20258;-82
2023/09/12 00:18:27;;;;;;;2.60;2.50;;;;;;;;;;5072426;28;20236;-81
2023/09/12 00:20:56;;;;;;;32.30;17.73;;;;;;;;;;5072254;28;20226;-83
2023/09/12 00:23:25;;;;;;;33.73;21.60;;;;;;;;;;5071548;28;20240;-83
2023/09/12 00:25:53;;;;;;;39.73;23.67;;;;;;;;;;5072571;28;20211;-83
2023/09/12 00:28:23;;;;;;;35.07;17.63;;;;;;;;;;5072070;28;20207;-83
2023/09/12 00:30:53;;;;;;;48.03;26.37;;;;;;;;;;5071764;28;20204;-83
2023/09/12 00:33:21;;;;;;;45.93;24.03;;;;;;;;;;5071440;28;20209;-83
2023/09/12 00:35:50;;;;;;;34.13;19.70;;;;;;;;;;5071720;28;20225;-83
2023/09/12 00:38:18;;;;;;;48.10;25.57;;;;;;;;;;5071857;28;20209;-83
2023/09/12 00:40:47;;;;;;;38.40;22.10;;;;;;;;;;5071604;28;20256;-83
2023/09/12 00:43:15;;;;;;;40.27;20.80;;;;;;;;;;5071815;28;20201;-83
2023/09/12 00:45:45;;;;;;;64.67;32.63;;;;;;;;;;5071767;28;20205;-83
2023/09/12 00:48:14;;;;;;;41.87;22.20;;;;;;;;;;5071344;28;20242;-83
2023/09/12 00:50:43;;;;;;;57.97;31.83;;;;;;;;;;5074436;28;20197;-83
2023/09/12 00:53:12;;;;;;;52.77;26.90;;;;;;;;;;5075844;28;20198;-83
2023/09/12 00:55:42;;;;;;;38.50;20.33;;;;;;;;;;5075793;28;20220;-81
2023/09/12 00:58:11;;;;;;;43.40;21.63;;;;;;;;;;5075672;28;20205;-81
2023/09/12 01:00:39;;;;;;;52.37;27.20;;;;;;;;;;5075914;28;20195;-81
2023/09/12 01:03:10;;;;;;;24.80;14.33;;;;;;;;;;5075718;28;20225;-82
2023/09/12 01:05:39;;;;;;;65.33;29.67;;;;;;;;;;5075885;28;20236;-81
2023/09/12 01:08:07;;;;;;;29.90;17.60;;;;;;;;;;5075421;28;20207;-81
2023/09/12 01:10:36;;;;;;;54.20;25.70;;;;;;;;;;5075572;28;20194;-81
2023/09/12 01:13:05;;;;;;;46.40;25.13;;;;;;;;;;5075545;28;20452;-81
2023/09/12 01:15:33;;;;;;;54.67;30.10;;;;;;;;;;5075332;28;20214;-81
2023/09/12 01:18:02;;;;;;;34.30;17.63;;;;;;;;;;5075501;28;20232;-82
2023/09/12 01:20:32;;;;;;;33.57;20.57;;;;;;;;;;5075569;28;20206;-81
2023/09/12 01:23:18;;;;;;;57.30;29.67;;;;;;;;;;5074980;28;20359;-81
2023/09/12 01:25:56;;;;;;;29.73;19.43;;;;;;;;;;5075084;28;20198;-81
2023/09/12 01:28:29;;;;;;;2.33;2.23;;;;;;;;;;5075425;28;20212;-81
2023/09/12 01:30:57;;;;;;;0.97;0.97;;;;;;;;;;5075442;28;20210;-81
2023/09/12 01:33:26;;;;;;;4.67;4.37;;;;;;;;;;5075382;28;20209;-81
2023/09/12 01:35:55;;;;;;;0.83;0.83;;;;;;;;;;5074880;28;20219;-81
2023/09/12 01:38:23;;;;;;;1.73;1.63;;;;;;;;;;5074949;28;20200;-81
2023/09/12 01:40:53;;;;;;;0.50;0.50;;;;;;;;;;5075057;28;20224;-81
2023/09/12 01:43:23;;;;;;;2.00;1.90;;;;;;;;;;5074488;28;20204;-81
2023/09/12 01:45:54;;;;;;;2.93;2.83;;;;;;;;;;5075204;28;20239;-81
2023/09/12 01:48:26;;;;;;;2.40;2.30;;;;;;;;;;5074911;28;20205;-81
2023/09/12 01:50:55;;;;;;;0.83;0.83;;;;;;;;;;5074734;28;20208;-81
2023/09/12 01:53:24;;;;;;;0.40;0.40;;;;;;;;;;5074151;28;20254;-81
2023/09/12 01:55:52;;;;;;;1.13;1.13;;;;;;;;;;5074753;28;20322;-81
2023/09/12 01:58:21;;;;;;;0.50;0.50;;;;;;;;;;5074621;28;20211;-81
2023/09/12 02:00:50;;;;;;;0.20;0.20;;;;;;;;;;5074116;28;20213;-81
2023/09/12 02:03:19;;;;;;;13.67;9.17;;;;;;;;;;5074492;28;20208;-81
2023/09/12 02:05:48;;;;;;;13.83;11.93;;;;;;;;;;5074255;28;20238;-82
2023/09/12 02:08:17;;;;;;;27.47;17.50;;;;;;;;;;5074730;28;20203;-81
2023/09/12 02:10:45;;;;;;;12.07;10.37;;;;;;;;;;5074319;28;20206;-81
2023/09/12 02:13:14;;;;;;;43.20;22.40;;;;;;;;;;5074634;28;20201;-81
2023/09/12 02:15:42;;;;;;;32.53;17.57;;;;;;;;;;5074184;28;20215;-81
2023/09/12 02:18:11;;;;;;;37.13;19.53;;;;;;;;;;5073985;28;20203;-83
2023/09/12 02:20:45;;;;;;;56.60;27.03;;;;;;;;;;5073451;28;20212;-83
2023/09/12 02:23:14;;;;;;;29.07;17.20;;;;;;;;;;5074049;28;20259;-83
2023/09/12 02:25:42;;;;;;;24.90;13.53;;;;;;;;;;5073895;28;20231;-83
2023/09/12 02:28:11;;;;;;;25.53;16.77;;;;;;;;;;5073511;28;20193;-83
2023/09/12 02:30:40;;;;;;;32.70;18.23;;;;;;;;;;5073273;28;20197;-83
2023/09/12 02:33:09;;;;;;;20.03;12.77;;;;;;;;;;5073683;28;20288;-83
2023/09/12 02:35:38;;;;;;;7.63;5.83;;;;;;;;;;5073590;28;20217;-83
2023/09/12 02:38:07;;;;;;;0.97;0.97;;;;;;;;;;5073355;28;20225;-83
2023/09/12 02:40:36;;;;;;;0.30;0.30;;;;;;;;;;5073468;28;20262;-83
2023/09/12 02:43:05;;;;;;;1.03;1.03;;;;;;;;;;5073409;28;20248;-83
2023/09/12 02:45:33;;;;;;;1.70;1.70;;;;;;;;;;5073247;28;20201;-83
2023/09/12 02:48:02;;;;;;;2.20;2.17;;;;;;;;;;5073046;28;20201;-83
2023/09/12 02:50:30;;;;;;;1.30;0.80;;;;;;;;;;5073411;28;20231;-83
2023/09/12 02:52:59;;;;;;;3.17;2.97;;;;;;;;;;5073179;28;20201;-83
2023/09/12 02:55:29;;;;;;;33.37;17.50;;;;;;;;;;5072449;28;20217;-83
2023/09/12 02:57:57;;;;;;;11.83;6.07;;;;;;;;;;5072843;28;20199;-83
2023/09/12 03:00:25;;;;;;;74.00;31.27;;;;;;;;;;5072884;28;20209;-83
2023/09/12 03:02:54;;;;;;;107.03;40.37;;;;;;;;;;5073470;28;20202;-83
2023/09/12 03:05:23;;;;;;;91.80;39.43;;;;;;;;;;5072808;28;20205;-83
2023/09/12 03:07:51;;;;;;;83.30;35.83;;;;;;;;;;5072903;28;20199;-83
2023/09/12 03:10:19;;;;;;;36.13;19.07;;;;;;;;;;5073205;28;20199;-83
2023/09/12 03:12:49;;;;;;;27.57;15.17;;;;;;;;;;5072123;28;20202;-83
2023/09/12 03:15:18;;;;;;;13.80;9.53;;;;;;;;;;5072304;28;20205;-83
2023/09/12 03:17:46;;;;;;;4.50;4.13;;;;;;;;;;5073012;28;20202;-83
2023/09/12 03:20:15;;;;;;;19.73;14.47;;;;;;;;;;5072876;28;20297;-83
2023/09/12 03:22:45;;;;;;;20.50;10.00;;;;;;;;;;5072055;28;20242;-83
2023/09/12 03:25:13;;;;;;;35.77;21.57;;;;;;;;;;5072658;28;20209;-83
2023/09/12 03:27:42;;;;;;;31.23;15.73;;;;;;;;;;5072451;28;20269;-83
2023/09/12 03:30:12;;;;;;;17.70;11.00;;;;;;;;;;5072673;28;20203;-83
2023/09/12 03:32:41;;;;;;;2.50;2.47;;;;;;;;;;5072347;28;20209;-83
2023/09/12 03:35:09;;;;;;;5.43;4.50;;;;;;;;;;5072910;28;20202;-83
2023/09/12 03:37:40;;;;;;;13.50;6.80;;;;;;;;;;5072188;28;20229;-81
2023/09/12 03:40:09;;;;;;;4.87;3.70;;;;;;;;;;5072714;28;20203;-81
2023/09/12 03:42:37;;;;;;;2.60;2.40;;;;;;;;;;5072399;28;20203;-81
2023/09/12 03:45:14;;;;;;;19.53;8.73;;;;;;;;;;5072830;28;20201;-82
2023/09/12 03:47:46;;;;;;;4.13;3.73;;;;;;;;;;5072620;28;20212;-81
2023/09/12 03:50:15;;;;;;;2.40;2.03;;;;;;;;;;5072842;28;20223;-81
2023/09/12 03:52:43;;;;;;;7.23;3.80;;;;;;;;;;5072435;28;20255;-81
2023/09/12 03:55:12;;;;;;;5.73;4.67;;;;;;;;;;5072540;28;20212;-81
2023/09/12 03:57:40;;;;;;;3.83;3.60;;;;;;;;;;5072411;28;20218;-81
2023/09/12 04:00:09;;;;;;;1.43;1.33;;;;;;;;;;5072845;28;20197;-81
2023/09/12 04:02:39;;;;;;;10.83;5.80;;;;;;;;;;5072445;28;20203;-81
2023/09/12 04:05:09;;;;;;;2.83;2.63;;;;;;;;;;5072905;28;20206;-81
2023/09/12 04:07:37;;;;;;;1.87;1.77;;;;;;;;;;5072101;28;20207;-82
2023/09/12 04:10:06;;;;;;;12.47;5.93;;;;;;;;;;5072424;28;20201;-82
2023/09/12 04:12:34;;;;;;;1.73;1.63;;;;;;;;;;5072057;28;20261;-83
2023/09/12 04:15:03;;;;;;;173.13;30.00;;;;;;;;;;5072314;28;20201;-83
2023/09/12 04:17:32;;;;;;;164.20;23.93;;;;;;;;;;5071340;28;20305;-83
2023/09/12 04:20:02;;;;;;;192.90;29.27;;;;;;;;;;5072244;28;20201;-82
2023/09/12 04:22:30;;;;;;;190.30;26.10;;;;;;;;;;5072165;28;20200;-83
2023/09/12 04:24:59;;;;;;;162.43;31.97;;;;;;;;;;5072974;28;20230;-83
2023/09/12 04:27:27;;;;;;;2.83;2.73;;;;;;;;;;5075390;28;20201;-83
2023/09/12 04:29:55;;;;;;;7.37;4.03;;;;;;;;;;5075787;28;20233;-83
2023/09/12 04:32:24;;;;;;;20.37;5.13;;;;;;;;;;5076007;28;20205;-83
2023/09/12 04:34:52;;;;;;;51.53;13.53;;;;;;;;;;5075746;28;20197;-83
2023/09/12 04:37:22;;;;;;;142.30;26.97;;;;;;;;;;5075406;28;20264;-83
2023/09/12 04:39:51;;;;;;;30.47;7.73;;;;;;;;;;5075756;28;20217;-84
2023/09/12 04:42:19;;;;;;;202.13;24.07;;;;;;;;;;5075563;28;20198;-83
2023/09/12 04:44:48;;;;;;;69.13;19.17;;;;;;;;;;5075497;28;20225;-83
2023/09/12 04:47:16;;;;;;;96.17;24.10;;;;;;;;;;5075515;28;20200;-83
2023/09/12 04:49:45;;;;;;;141.73;31.17;;;;;;;;;;5075903;28;20206;-83
2023/09/12 04:52:14;;;;;;;217.33;33.10;;;;;;;;;;5075599;28;20204;-83
2023/09/12 04:54:44;;;;;;;207.90;34.03;;;;;;;;;;5075318;28;20202;-83
2023/09/12 04:57:12;;;;;;;345.63;46.40;;;;;;;;;;5075098;28;20277;-83
2023/09/12 04:59:41;;;;;;;187.47;27.13;;;;;;;;;;5075656;28;20233;-83
2023/09/12 05:02:09;;;;;;;168.97;28.70;;;;;;;;;;5075053;28;20256;-83
2023/09/12 05:04:38;;;;;;;72.00;23.13;;;;;;;;;;5074963;28;20198;-83
2023/09/12 05:07:06;;;;;;;33.80;14.30;;;;;;;;;;5075440;28;20284;-83
2023/09/12 05:09:35;;;;;;;74.03;28.57;;;;;;;;;;5075040;28;20201;-83
2023/09/12 05:12:05;;;;;;;61.90;21.93;;;;;;;;;;5075138;28;20198;-83
2023/09/12 05:14:33;;;;;;;116.00;41.57;;;;;;;;;;5075494;28;20203;-83
2023/09/12 05:17:02;;;;;;;70.63;28.30;;;;;;;;;;5075061;28;20288;-83
2023/09/12 05:19:32;;;;;;;26.93;13.97;;;;;;;;;;5074764;28;20201;-83
2023/09/12 05:22:00;;;;;;;4.63;3.97;;;;;;;;;;5074590;28;20198;-84
2023/09/12 05:24:29;;;;;;;5.33;5.10;;;;;;;;;;5074656;28;20235;-84
2023/09/12 05:26:57;;;;;;;22.43;10.97;;;;;;;;;;5075893;28;20208;-84
2023/09/12 05:29:27;;;;;;;2.30;2.20;;;;;;;;;;5074989;28;20204;-84
2023/09/12 05:31:55;;;;;;;41.20;22.50;;;;;;;;;;5075808;28;20201;-84
2023/09/12 05:34:24;;;;;;;2.27;2.20;;;;;;;;;;5076913;28;20280;-84
2023/09/12 05:36:53;;;;;;;0.83;0.83;;;;;;;;;;5075701;28;20213;-85
2023/09/12 05:39:21;;;;;;;9.33;8.40;;;;;;;;;;5076323;28;20317;-85
2023/09/12 05:41:50;;;;;;;35.40;17.20;;;;;;;;;;5075996;28;20228;-80
2023/09/12 05:44:18;;;;;;;30.43;15.73;;;;;;;;;;5075077;28;20206;-80
2023/09/12 05:46:49;;;;;;;5.47;4.47;;;;;;;;;;5075077;28;20277;-80
2023/09/12 05:49:17;;;;;;;14.13;8.43;;;;;;;;;;5074597;28;20275;-80
2023/09/12 05:51:46;;;;;;;37.67;18.20;;;;;;;;;;5074760;28;20201;-81
2023/09/12 05:54:15;;;;;;;12.77;8.57;;;;;;;;;;5074416;28;20186;-81
2023/09/12 05:56:44;;;;;;;16.77;9.40;;;;;;;;;;5074183;28;20205;-81
2023/09/12 05:59:12;;;;;;;67.20;29.63;;;;;;;;;;5074194;28;20198;-86
2023/09/12 06:01:41;;;;;;;10.27;6.37;;;;;;;;;;5074850;28;20260;-86
2023/09/12 06:04:10;;;;;;;37.10;18.63;;;;;;;;;;5074462;28;20218;-85
2023/09/12 06:06:39;;;;;;;28.97;13.77;;;;;;;;;;5074201;28;20207;-85
2023/09/12 06:09:08;;;;;;;32.13;17.27;;;;;;;;;;5074497;28;20233;-86
2023/09/12 06:11:37;;;;;;;26.87;15.00;;;;;;;;;;5075142;28;20197;-83
2023/09/12 06:14:06;;;;;;;24.80;9.70;;;;;;;;;;5075058;28;20197;-86
2023/09/12 06:16:34;;;;;;;12.97;7.87;;;;;;;;;;5074837;28;20214;-86
2023/09/12 06:19:03;;;;;;;20.90;8.97;;;;;;;;;;5075056;28;20317;-86
2023/09/12 06:21:35;;;;;;;23.07;13.60;;;;;;;;;;5074211;28;20203;-81
2023/09/12 06:24:11;;;;;;;9.57;5.40;;;;;;;;;;5073308;28;20245;-81
2023/09/12 06:26:40;;;;;;;25.73;13.90;;;;;;;;;;5073631;28;20275;-81
2023/09/12 06:29:09;;;;;;;17.47;6.20;;;;;;;;;;5073505;28;20200;-87
2023/09/12 06:31:37;;;;;;;30.77;15.87;;;;;;;;;;5074148;28;20236;-87
2023/09/12 06:34:06;;;;;;;70.33;20.97;;;;;;;;;;5074182;28;20207;-86
2023/09/12 06:36:36;;;;;;;40.27;16.47;;;;;;;;;;5074351;28;20228;-86
2023/09/12 06:39:05;;;;;;;11.50;6.93;;;;;;;;;;5073779;28;20317;-87
2023/09/12 06:41:33;;;;;;;16.97;8.17;;;;;;;;;;5074346;28;20255;-86
2023/09/12 06:44:04;;;;;;;56.00;26.67;;;;;;;;;;5074138;28;20193;-86
2023/09/12 06:46:35;;;;;;;30.97;13.47;;;;;;;;;;5074053;28;20223;-86
2023/09/12 06:49:04;;;;;;;20.93;9.90;;;;;;;;;;5076508;28;20200;-86
2023/09/12 06:51:33;;;;;;;38.50;17.40;;;;;;;;;;5078450;28;20193;-86
2023/09/12 06:54:07;;;;;;;29.80;15.53;;;;;;;;;;5076405;28;20236;-87
2023/09/12 06:56:37;;;;;;;77.17;29.73;;;;;;;;;;5075495;28;20195;-85
2023/09/12 06:59:06;;;;;;;65.80;25.03;;;;;;;;;;5073739;28;20218;-86
2023/09/12 07:01:35;;;;;;;91.73;32.93;;;;;;;;;;5073529;28;20230;-85
2023/09/12 07:04:03;;;;;;;45.57;17.53;;;;;;;;;;5073438;28;20231;-85
2023/09/12 07:06:33;;;;;;;89.60;35.90;;;;;;;;;;5073608;28;20293;-85
2023/09/12 07:09:02;;;;;;;66.70;22.80;;;;;;;;;;5072840;28;20202;-86
2023/09/12 07:11:32;;;;;;;61.00;26.17;;;;;;;;;;5073862;28;20278;-86
2023/09/12 07:14:00;;;;;;;35.03;18.57;;;;;;;;;;5073357;28;20209;-86
2023/09/12 07:16:29;;;;;;;60.77;26.20;;;;;;;;;;5073058;28;20262;-86
2023/09/12 07:18:57;;;;;;;39.90;16.27;;;;;;;;;;5072487;28;20218;-86
2023/09/12 07:21:26;;;;;;;63.70;23.43;;;;;;;;;;5073373;28;20199;-86
2023/09/12 07:23:54;;;;;;;31.30;16.97;;;;;;;;;;5073080;28;20230;-88
2023/09/12 07:26:23;;;;;;;82.70;29.87;;;;;;;;;;5072670;28;20194;-86
2023/09/12 07:28:56;;;;;;;92.43;36.37;;;;;;;;;;5072455;28;20220;-85
2023/09/12 07:31:25;;;;;;;52.37;20.47;;;;;;;;;;5073492;28;20203;-86
2023/09/12 07:33:53;;;;;;;69.20;27.43;;;;;;;;;;5073149;28;20266;-86
2023/09/12 07:36:22;;;;;;;82.13;34.47;;;;;;;;;;5073230;28;20223;-86
2023/09/12 07:38:50;;;;;;;66.20;26.40;;;;;;;;;;5073401;28;20270;-86
2023/09/12 07:41:19;;;;;;;44.63;17.77;;;;;;;;;;5073538;28;20213;-85
2023/09/12 07:43:48;;;;;;;10.37;5.23;;;;;;;;;;5073255;28;20204;-87
2023/09/12 07:46:17;;;;;;;13.23;10.47;;;;;;;;;;5073505;28;20211;-86
2023/09/12 07:48:46;;;;;;;35.33;14.30;;;;;;;;;;5073677;28;20244;-86
2023/09/12 07:51:15;;;;;;;36.23;16.23;;;;;;;;;;5072768;28;20197;-86
2023/09/12 07:53:43;;;;;;;9.53;5.67;;;;;;;;;;5073400;28;20301;-86
2023/09/12 07:56:12;;;;;;;30.57;17.30;;;;;;;;;;5072758;28;20287;-81
2023/09/12 07:58:41;;;;;;;6.53;4.67;;;;;;;;;;5072215;28;20241;-83
2023/09/12 08:01:10;;;;;;;2.20;1.80;;;;;;;;;;5072250;28;20290;-81
2023/09/12 08:03:41;;;;;;;23.23;12.57;;;;;;;;;;5072251;28;20195;-81
2023/09/12 08:06:11;;;;;;;8.07;6.00;;;;;;;;;;5071806;28;20231;-81
2023/09/12 08:08:39;;;;;;;5.83;5.33;;;;;;;;;;5072691;28;20248;-82
2023/09/12 08:11:09;;;;;;;24.97;13.23;;;;;;;;;;5072310;28;20198;-81
2023/09/12 08:13:37;;;;;;;17.90;12.53;;;;;;;;;;5071999;28;20203;-81
2023/09/12 08:16:21;;;;;;;0.30;0.30;;;;;;;;;;5064328;28;20210;-82
2023/09/12 08:18:52;;;;;;;33.93;16.47;;;;;;;;;;5057109;28;20208;-84
2023/09/12 08:21:20;;;;;;;34.47;19.77;;;;;;;;;;5067744;28;20264;-84
2023/09/12 08:23:49;;;;;;;29.63;19.53;;;;;;;;;;5057866;28;20241;-82
2023/09/12 08:26:19;;;;;;;11.83;6.83;;;;;;;;;;5060867;28;20196;-84
2023/09/12 08:28:47;;;;;;;3.57;3.27;;;;;;;;;;5062429;28;20257;-79
2023/09/12 08:31:16;;;;;;;1.97;1.53;;;;;;;;;;5063235;28;20208;-81
2023/09/12 08:33:45;;;;;;;2.43;2.30;;;;;;;;;;5063360;28;20204;-81
2023/09/12 08:36:15;;;;;;;8.70;5.23;;;;;;;;;;5061001;28;20298;-81
2023/09/12 08:38:44;;;;;;;15.70;9.30;;;;;;;;;;5063560;28;20288;-81
2023/09/12 08:41:13;;;;;;;11.87;8.50;;;;;;;;;;5067977;28;20208;-81
2023/09/12 08:43:41;;;;;;;3.90;3.57;;;;;;;;;;5070729;28;20295;-81
2023/09/12 08:46:11;;;;;;;12.17;7.17;;;;;;;;;;5059994;28;20207;-81
2023/09/12 08:48:40;;;;;;;10.87;6.47;;;;;;;;;;5062055;28;20224;-81
2023/09/12 08:51:10;;;;;;;17.43;10.67;;;;;;;;;;5066947;28;20227;-81
2023/09/12 08:53:40;;;;;;;6.30;5.03;;;;;;;;;;5065691;28;20217;-81
2023/09/12 08:56:09;;;;;;;2.47;2.27;;;;;;;;;;5064900;28;20206;-81
2023/09/12 08:58:38;;;;;;;15.53;9.07;;;;;;;;;;5063007;28;20225;-81
2023/09/12 09:01:10;;;;;;;5.13;4.33;;;;;;;;;;5061917;28;20228;-81
2023/09/12 09:03:39;;;;;;;3.27;2.57;;;;;;;;;;5064282;28;20202;-81
2023/09/12 09:06:08;;;;;;;11.53;6.73;;;;;;;;;;5062525;28;20295;-82
2023/09/12 09:08:37;;;;;;;11.80;5.73;;;;;;;;;;5061816;28;20198;-81
2023/09/12 09:11:07;;;;;;;2.37;2.17;;;;;;;;;;5067179;28;20199;-81
2023/09/12 09:13:35;;;;;;;1.77;1.67;;;;;;;;;;5071044;28;20224;-81
2023/09/12 09:16:14;;;;;;;8.20;4.47;;;;;;;;;;5068977;28;20211;-81
2023/09/12 09:19:03;;;;;;;4.53;2.23;;;;;;;;;;5060276;28;20206;-82
2023/09/12 09:21:33;;;;;;;5.53;5.03;;;;;;;;;;5057365;28;20210;-81
2023/09/12 09:24:03;;;;;;;0.37;0.37;;;;;;;;;;5062647;28;20226;-80
2023/09/12 09:26:43;;;;;;;0.20;0.20;;;;;;;;;;5062686;28;20215;-81
2023/09/12 09:29:14;;;;;;;0.50;0.50;;;;;;;;;;5060005;28;20205;-81
2023/09/12 09:31:44;;;;;;;1.20;1.20;;;;;;;;;;5063306;28;20206;-80
2023/09/12 09:34:14;;;;;;;0.37;0.37;;;;;;;;;;5061632;28;20207;-80
2023/09/12 09:36:45;;;;;;;12.63;6.13;;;;;;;;;;5058337;28;20250;-80
2023/09/12 09:39:14;;;;;;;1.37;1.10;;;;;;;;;;5061334;28;20223;-79
2023/09/12 09:41:47;;;;;;;1.53;1.43;;;;;;;;;;5063192;28;20208;-81
2023/09/12 09:44:15;;;;;;;0.30;0.30;;;;;;;;;;5063073;28;20211;-80
2023/09/12 09:46:45;;;;;;;2.33;1.83;;;;;;;;;;5058916;28;20213;-79
2023/09/12 09:49:16;;;;;;;1.33;1.33;;;;;;;;;;5066765;28;20200;-80
2023/09/12 09:51:44;;;;;;;0.30;0.30;;;;;;;;;;5064866;28;20227;-80
2023/09/12 09:54:13;;;;;;;4.17;2.20;;;;;;;;;;5056678;28;20202;-82
2023/09/12 09:56:49;;;;;;;3.37;1.43;;;;;;;;;;5064837;28;20221;-81
2023/09/12 09:59:18;;;;;;;1.50;1.40;;;;;;;;;;5058111;28;20216;-81
2023/09/12 10:01:52;;;;;;;1.33;1.33;;;;;;;;;;5061653;28;20210;-81
2023/09/12 10:04:21;;;;;;;7.00;1.27;;;;;;;;;;5061051;28;20209;-83
2023/09/12 10:06:50;;;;;;;2.53;2.33;;;;;;;;;;5059611;28;20209;-80
2023/09/12 10:09:20;;;;;;;1.07;0.97;;;;;;;;;;5066893;28;20201;-81
2023/09/12 10:11:52;;;;;;;0.77;0.77;;;;;;;;;;5065373;28;20212;-81
2023/09/12 10:14:21;;;;;;;7.10;3.53;;;;;;;;;;5058568;28;20197;-81
2023/09/12 10:16:52;;;;;;;0.63;0.63;;;;;;;;;;5064000;28;20829;-80
2023/09/12 10:19:23;;;;;;;4.47;2.43;;;;;;;;;;5065415;28;20236;-80
2023/09/12 10:21:56;;;;;;;1.73;1.63;;;;;;;;;;5065571;28;20216;-81
2023/09/12 10:24:26;;;;;;;6.60;2.53;;;;;;;;;;5068920;28;20282;-81
2023/09/12 10:26:57;;;;;;;1.73;1.10;;;;;;;;;;5063861;28;20209;-80
2023/09/12 10:29:25;;;;;;;3.27;2.27;;;;;;;;;;5068431;28;20206;-80
2023/09/12 10:31:54;;;;;;;5.27;4.03;;;;;;;;;;5062297;28;20201;-79
2023/09/12 10:34:23;;;;;;;4.07;2.07;;;;;;;;;;5064400;28;20206;-79
2023/09/12 10:36:52;;;;;;;2.33;1.77;;;;;;;;;;5061210;28;20229;-80
2023/09/12 10:39:22;;;;;;;2.70;0.93;;;;;;;;;;5056396;28;20198;-79
2023/09/12 10:41:51;;;;;;;2.33;2.17;;;;;;;;;;5059236;28;20307;-80
2023/09/12 10:44:22;;;;;;;3.33;2.73;;;;;;;;;;5059611;28;20202;-80
2023/09/12 10:46:51;;;;;;;3.40;2.63;;;;;;;;;;5059930;28;20278;-80
2023/09/12 10:49:19;;;;;;;2.03;1.73;;;;;;;;;;5079696;28;20200;-79
2023/09/12 10:51:49;;;;;;;0.60;0.60;;;;;;;;;;5063294;28;20233;-80
2023/09/12 10:54:25;;;;;;;1.87;1.77;;;;;;;;;;5060308;28;20271;-80
2023/09/12 10:57:06;;;;;;;9.17;3.20;;;;;;;;;;5061236;28;20209;-80
2023/09/12 10:59:36;;;;;;;2.73;2.37;;;;;;;;;;5056101;28;20251;-80
2023/09/12 11:02:20;;;;;;;5.43;3.67;;;;;;;;;;5059747;28;20214;-80
2023/09/12 11:04:48;;;;;;;2.77;2.37;;;;;;;;;;5045825;28;20202;-80
2023/09/12 11:07:33;;;;;;;1.90;1.77;;;;;;;;;;5060879;28;20231;-80
2023/09/12 11:10:19;;;;;;;6.43;5.67;;;;;;;;;;5062626;28;20287;-81
2023/09/12 11:12:48;;;;;;;3.73;3.10;;;;;;;;;;5061722;28;20209;-80
2023/09/12 11:15:18;;;;;;;1.57;1.47;;;;;;;;;;5061343;28;20219;-80
2023/09/12 11:17:48;;;;;;;1.67;1.57;;;;;;;;;;5059800;28;20299;-80
2023/09/12 11:20:17;;;;;;;8.03;3.80;;;;;;;;;;5064060;28;20262;-80
2023/09/12 11:22:47;;;;;;;1.00;1.00;;;;;;;;;;5061664;28;20197;-80
2023/09/12 11:25:22;;;;;;;0.63;0.63;;;;;;;;;;5065011;28;20229;-82
2023/09/12 11:28:06;;;;;;;1.70;0.87;;;;;;;;;;5057458;28;20202;-81
2023/09/12 11:30:36;;;;;;;0.67;0.67;;;;;;;;;;5055981;28;20248;-81
2023/09/12 11:33:05;;;;;;;0.27;0.27;;;;;;;;;;5054099;28;20219;-81
2023/09/12 11:35:38;;;;;;;0.70;0.70;;;;;;;;;;5060405;28;20203;-81
2023/09/12 11:38:11;;;;;;;1.70;0.87;;;;;;;;;;5062341;28;20231;-81
2023/09/12 11:40:48;;;;;;;2.50;1.80;;;;;;;;;;5063057;28;20222;-81
2023/09/12 11:43:24;;;;;;;2.83;1.80;;;;;;;;;;5065097;28;20212;-81
2023/09/12 11:45:54;;;;;;;0.53;0.30;;;;;;;;;;5060728;28;20215;-81
2023/09/12 11:48:22;;;;;;;2.90;1.73;;;;;;;;;;5052612;28;20200;-81
2023/09/12 11:50:52;;;;;;;3.60;2.20;;;;;;;;;;5056077;28;20330;-81
2023/09/12 11:53:21;;;;;;;9.00;2.33;;;;;;;;;;5063202;28;20203;-81
2023/09/12 11:55:51;;;;;;;0.60;0.60;;;;;;;;;;5058626;28;20199;-82
2023/09/12 11:58:20;;;;;;;2.43;2.00;;;;;;;;;;5060688;28;20206;-81
2023/09/12 12:00:49;;;;;;;4.23;3.00;;;;;;;;;;5057207;28;20223;-82
2023/09/12 12:03:20;;;;;;;0.40;0.40;;;;;;;;;;5065076;28;20211;-82
2023/09/12 12:05:49;;;;;;;1.97;0.90;;;;;;;;;;5068094;28;20203;-81
2023/09/12 12:08:18;;;;;;;3.30;2.87;;;;;;;;;;5069984;28;20206;-81
2023/09/12 12:10:51;;;;;;;6.43;2.10;;;;;;;;;;5070827;28;20284;-83
2023/09/12 12:13:20;;;;;;;1.60;1.23;;;;;;;;;;5069260;28;20193;-81
2023/09/12 12:15:49;;;;;;;27.70;3.50;;;;;;;;;;5064972;28;20231;-81
2023/09/12 12:18:17;;;;;;;0.40;0.40;;;;;;;;;;5066834;28;20209;-80
2023/09/12 12:20:47;;;;;;;2.67;2.23;;;;;;;;;;5062728;28;20222;-80
2023/09/12 12:23:16;;;;;;;0.40;0.40;;;;;;;;;;5062341;28;20232;-80
2023/09/12 12:25:44;;;;;;;2.93;1.17;;;;;;;;;;5059628;28;20241;-81
2023/09/12 12:28:13;;;;;;;0.43;0.43;;;;;;;;;;5058321;28;20261;-80
2023/09/12 12:30:41;;;;;;;2.20;2.00;;;;;;;;;;5059367;28;20202;-80
2023/09/12 12:33:11;;;;;;;0.60;0.60;;;;;;;;;;5060745;28;20303;-79
2023/09/12 12:36:04;;;;;;;0.20;0.20;;;;;;;;;;5055276;28;20199;-82
2023/09/12 12:38:35;;;;;;;0.40;0.40;;;;;;;;;;5062489;28;20288;-80
2023/09/12 12:41:10;;;;;;;0.90;0.80;;;;;;;;;;5065349;28;20217;-80
2023/09/12 12:43:41;;;;;;;0.87;0.87;;;;;;;;;;5059634;28;20207;-80
2023/09/12 12:46:12;;;;;;;1.13;1.07;;;;;;;;;;5060378;28;20314;-80
2023/09/12 12:48:45;;;;;;;0.80;0.73;;;;;;;;;;5060920;28;20233;-80
2023/09/12 12:51:17;;;;;;;1.47;1.37;;;;;;;;;;5061497;28;20203;-80
2023/09/12 12:53:46;;;;;;;1.90;1.27;;;;;;;;;;5061639;28;20211;-79
2023/09/12 12:56:22;;;;;;;1.17;0.53;;;;;;;;;;5064962;28;20203;-83
2023/09/12 12:58:52;;;;;;;3.50;2.47;;;;;;;;;;5065732;28;20203;-81
2023/09/12 13:01:20;;;;;;;1.70;1.60;;;;;;;;;;5062029;28;20223;-81
2023/09/12 13:03:50;;;;;;;2.10;1.90;;;;;;;;;;5062760;28;20218;-81
2023/09/12 13:06:20;;;;;;;7.97;1.50;;;;;;;;;;5066443;28;20225;-81
2023/09/12 13:08:50;;;;;;;1.53;1.10;;;;;;;;;;5058171;28;20203;-80
2023/09/12 13:11:18;;;;;;;1.97;1.70;;;;;;;;;;5062824;28;20194;-79
2023/09/12 13:13:48;;;;;;;4.00;2.03;;;;;;;;;;5062989;28;20215;-79
2023/09/12 13:16:17;;;;;;;0.93;0.90;;;;;;;;;;5059344;28;20195;-79
2023/09/12 13:18:46;;;;;;;1.87;1.77;;;;;;;;;;5062058;28;20219;-79
2023/09/12 13:21:15;;;;;;;1.27;1.17;;;;;;;;;;5065343;28;20231;-78
2023/09/12 13:23:45;;;;;;;1.37;1.20;;;;;;;;;;5060456;28;20259;-78
2023/09/12 13:26:14;;;;;;;2.23;1.97;;;;;;;;;;5067011;28;20243;-79
2023/09/12 13:28:42;;;;;;;3.67;3.47;;;;;;;;;;5062399;28;20258;-78
2023/09/12 13:31:12;;;;;;;0.50;0.50;;;;;;;;;;5062689;28;20247;-79
2023/09/12 13:33:42;;;;;;;4.07;2.77;;;;;;;;;;5066866;28;20214;-78
2023/09/12 13:36:11;;;;;;;3.07;2.13;;;;;;;;;;5062506;28;20235;-78
2023/09/12 13:38:39;;;;;;;0.87;0.87;;;;;;;;;;5060403;28;20213;-78
2023/09/12 13:41:09;;;;;;;0.87;0.60;;;;;;;;;;5063357;28;20206;-78
2023/09/12 13:43:38;;;;;;;2.10;1.90;;;;;;;;;;5063775;28;20262;-79
2023/09/12 13:46:09;;;;;;;2.33;1.57;;;;;;;;;;5062134;28;20202;-78
2023/09/12 13:48:38;;;;;;;11.53;2.07;;;;;;;;;;5060088;28;20298;-78
2023/09/12 13:51:07;;;;;;;2.20;2.07;;;;;;;;;;5063190;28;20249;-79
2023/09/12 13:53:35;;;;;;;1.63;1.53;;;;;;;;;;5061064;28;20199;-79
2023/09/12 13:56:06;;;;;;;3.37;2.13;;;;;;;;;;5061603;28;20288;-78
2023/09/12 13:58:36;;;;;;;1.00;1.00;;;;;;;;;;5062968;28;20212;-78
2023/09/12 14:01:11;;;;;;;1.83;1.73;;;;;;;;;;5059537;28;20202;-78
2023/09/12 14:03:53;;;;;;;2.20;1.77;;;;;;;;;;5064775;28;20206;-78
2023/09/12 14:06:22;;;;;;;2.97;2.67;;;;;;;;;;5061252;28;20198;-78
2023/09/12 14:08:51;;;;;;;2.73;1.73;;;;;;;;;;5062510;28;20246;-78
2023/09/12 14:11:20;;;;;;;0.97;0.97;;;;;;;;;;5060505;28;20604;-78
2023/09/12 14:14:02;;;;;;;0.73;0.73;;;;;;;;;;5061355;28;20475;-79
2023/09/12 14:16:44;;;;;;;1.20;1.10;;;;;;;;;;5061715;28;20206;-79
2023/09/12 14:19:16;;;;;;;4.53;1.70;;;;;;;;;;5064250;28;20228;-79
2023/09/12 14:21:45;;;;;;;1.93;1.73;;;;;;;;;;5058068;28;20223;-79
2023/09/12 14:24:15;;;;;;;3.30;2.90;;;;;;;;;;5060800;28;20481;-79
2023/09/12 14:26:46;;;;;;;2.60;1.70;;;;;;;;;;5056471;28;20214;-79
2023/09/12 14:29:16;;;;;;;1.40;1.13;;;;;;;;;;5059506;28;20240;-79
2023/09/12 14:31:50;;;;;;;2.83;1.73;;;;;;;;;;5059937;28;20234;-78
2023/09/12 14:34:20;;;;;;;0.63;0.60;;;;;;;;;;5059487;28;20204;-79
2023/09/12 14:36:50;;;;;;;0.60;0.60;;;;;;;;;;5060905;28;20227;-78
2023/09/12 14:39:19;;;;;;;3.97;2.93;;;;;;;;;;5070983;28;20232;-79
2023/09/12 14:41:51;;;;;;;0.50;0.50;;;;;;;;;;5067011;28;20285;-79
2023/09/12 14:44:24;;;;;;;1.47;1.37;;;;;;;;;;5058440;28;20220;-80
2023/09/12 14:46:52;;;;;;;6.13;2.67;;;;;;;;;;5060772;28;20210;-80